Armstrong, Pennsylvania
Current Conditions -  °F | °C
As of 10:54 PM on Wednesday 26 Nov 2014 (Local Time) from KIPT Reporting Station
Overcast Overcast  
Wind Chill: 25°   Ceiling: 2500
Heat Index: 32°   Visibility: 10mi
Dew Point: 29°   Wind: 8mph
Humidity: 88%   Direction: 260°W
Pressure: 29.97"   Gusts: NA
Location:  41.2285°N, 77.014°W
Report Text: KIPT 270354Z AUTO 26007KT 10SM OVC025 00/M02 A2997 RMK AO2 SNB26E42 SLP154 P0000 T00001017
Loading
Personal Weather Stations






























Interactive Weather Map New forecast layout! Learn more

10-Day Weather Forecast

Advertisements
Track Severe Weather on mobile